sensor_id;sensor_type;location;lat;lon;timestamp;P1;durP1;ratioP1;P2;durP2;ratioP2
21360;SDS011;10839;43.206;23.550;2022-12-07T00:01:14;23.80;;;9.07;;
21360;SDS011;10839;43.206;23.550;2022-12-07T00:03:43;25.98;;;9.07;;
21360;SDS011;10839;43.206;23.550;2022-12-07T00:06:12;19.83;;;8.45;;
21360;SDS011;10839;43.206;23.550;2022-12-07T00:08:40;16.55;;;7.95;;
21360;SDS011;10839;43.206;23.550;2022-12-07T00:11:08;19.00;;;7.90;;
21360;SDS011;10839;43.206;23.550;2022-12-07T00:13:36;18.67;;;7.93;;
21360;SDS011;10839;43.206;23.550;2022-12-07T00:16:07;21.40;;;8.23;;
21360;SDS011;10839;43.206;23.550;2022-12-07T00:18:36;21.17;;;9.27;;
21360;SDS011;10839;43.206;23.550;2022-12-07T00:21:04;20.00;;;8.30;;
21360;SDS011;10839;43.206;23.550;2022-12-07T00:23:39;23.02;;;9.27;;
21360;SDS011;10839;43.206;23.550;2022-12-07T00:26:08;20.52;;;8.32;;
21360;SDS011;10839;43.206;23.550;2022-12-07T00:28:36;22.00;;;8.30;;
21360;SDS011;10839;43.206;23.550;2022-12-07T00:31:03;22.92;;;9.52;;
21360;SDS011;10839;43.206;23.550;2022-12-07T00:33:36;26.05;;;11.30;;
21360;SDS011;10839;43.206;23.550;2022-12-07T00:36:05;22.20;;;10.07;;
21360;SDS011;10839;43.206;23.550;2022-12-07T00:38:34;22.23;;;9.15;;
21360;SDS011;10839;43.206;23.550;2022-12-07T00:41:03;19.23;;;9.18;;
21360;SDS011;10839;43.206;23.550;2022-12-07T00:43:35;16.90;;;7.78;;
21360;SDS011;10839;43.206;23.550;2022-12-07T00:46:02;19.90;;;7.90;;
21360;SDS011;10839;43.206;23.550;2022-12-07T00:48:28;17.95;;;8.10;;
21360;SDS011;10839;43.206;23.550;2022-12-07T00:50:54;17.65;;;7.68;;
21360;SDS011;10839;43.206;23.550;2022-12-07T00:53:20;19.73;;;8.05;;
21360;SDS011;10839;43.206;23.550;2022-12-07T00:55:46;18.48;;;8.60;;
21360;SDS011;10839;43.206;23.550;2022-12-07T00:58:12;17.83;;;8.10;;
21360;SDS011;10839;43.206;23.550;2022-12-07T01:00:40;20.75;;;8.88;;
21360;SDS011;10839;43.206;23.550;2022-12-07T01:03:07;18.73;;;7.97;;
21360;SDS011;10839;43.206;23.550;2022-12-07T01:05:35;26.52;;;11.07;;
21360;SDS011;10839;43.206;23.550;2022-12-07T01:08:00;27.92;;;11.23;;
21360;SDS011;10839;43.206;23.550;2022-12-07T01:10:27;26.80;;;10.52;;
21360;SDS011;10839;43.206;23.550;2022-12-07T01:12:54;24.35;;;10.88;;
21360;SDS011;10839;43.206;23.550;2022-12-07T01:15:19;29.13;;;12.40;;
21360;SDS011;10839;43.206;23.550;2022-12-07T01:17:45;37.25;;;13.63;;
21360;SDS011;10839;43.206;23.550;2022-12-07T01:20:12;37.63;;;14.60;;
21360;SDS011;10839;43.206;23.550;2022-12-07T01:22:39;33.03;;;13.43;;
21360;SDS011;10839;43.206;23.550;2022-12-07T01:25:07;32.90;;;13.27;;
21360;SDS011;10839;43.206;23.550;2022-12-07T01:27:34;29.65;;;12.07;;
21360;SDS011;10839;43.206;23.550;2022-12-07T01:30:00;28.52;;;12.50;;
21360;SDS011;10839;43.206;23.550;2022-12-07T01:32:27;27.67;;;12.43;;
21360;SDS011;10839;43.206;23.550;2022-12-07T01:34:54;32.63;;;13.75;;
21360;SDS011;10839;43.206;23.550;2022-12-07T01:37:20;32.08;;;13.02;;
21360;SDS011;10839;43.206;23.550;2022-12-07T01:39:48;31.42;;;13.02;;
21360;SDS011;10839;43.206;23.550;2022-12-07T01:42:14;29.90;;;14.18;;
21360;SDS011;10839;43.206;23.550;2022-12-07T01:47:49;36.67;;;15.60;;
21360;SDS011;10839;43.206;23.550;2022-12-07T01:50:23;36.25;;;15.23;;
21360;SDS011;10839;43.206;23.550;2022-12-07T01:52:52;31.33;;;14.25;;
21360;SDS011;10839;43.206;23.550;2022-12-07T01:55:21;35.65;;;15.35;;
21360;SDS011;10839;43.206;23.550;2022-12-07T01:57:49;25.45;;;11.73;;
21360;SDS011;10839;43.206;23.550;2022-12-07T02:00:18;25.85;;;11.85;;
21360;SDS011;10839;43.206;23.550;2022-12-07T02:02:57;22.17;;;11.27;;
21360;SDS011;10839;43.206;23.550;2022-12-07T02:05:37;27.83;;;13.05;;
21360;SDS011;10839;43.206;23.550;2022-12-07T02:08:06;26.38;;;11.80;;
21360;SDS011;10839;43.206;23.550;2022-12-07T02:10:34;30.33;;;13.38;;
21360;SDS011;10839;43.206;23.550;2022-12-07T02:26:42;37.10;;;14.60;;
21360;SDS011;10839;43.206;23.550;2022-12-07T02:29:33;34.58;;;14.18;;
21360;SDS011;10839;43.206;23.550;2022-12-07T02:38:08;41.50;;;17.30;;
21360;SDS011;10839;43.206;23.550;2022-12-07T02:43:22;44.63;;;17.15;;
21360;SDS011;10839;43.206;23.550;2022-12-07T02:45:55;40.20;;;15.48;;
21360;SDS011;10839;43.206;23.550;2022-12-07T02:48:27;34.57;;;13.43;;
21360;SDS011;10839;43.206;23.550;2022-12-07T02:50:53;37.53;;;15.27;;
21360;SDS011;10839;43.206;23.550;2022-12-07T02:53:29;43.60;;;16.27;;
21360;SDS011;10839;43.206;23.550;2022-12-07T03:02:47;40.53;;;16.95;;
21360;SDS011;10839;43.206;23.550;2022-12-07T03:13:33;72.75;;;31.10;;
21360;SDS011;10839;43.206;23.550;2022-12-07T03:18:34;67.85;;;27.35;;
21360;SDS011;10839;43.206;23.550;2022-12-07T03:21:16;60.72;;;24.98;;
21360;SDS011;10839;43.206;23.550;2022-12-07T03:23:46;57.90;;;23.55;;
21360;SDS011;10839;43.206;23.550;2022-12-07T03:26:17;58.28;;;22.70;;
21360;SDS011;10839;43.206;23.550;2022-12-07T03:28:49;65.95;;;24.58;;
21360;SDS011;10839;43.206;23.550;2022-12-07T03:31:25;58.75;;;23.77;;
21360;SDS011;10839;43.206;23.550;2022-12-07T03:36:36;59.85;;;21.20;;
21360;SDS011;10839;43.206;23.550;2022-12-07T03:39:43;50.78;;;15.15;;
21360;SDS011;10839;43.206;23.550;2022-12-07T03:42:20;39.53;;;16.05;;
21360;SDS011;10839;43.206;23.550;2022-12-07T03:44:45;36.88;;;14.95;;
21360;SDS011;10839;43.206;23.550;2022-12-07T03:47:14;39.28;;;15.57;;
21360;SDS011;10839;43.206;23.550;2022-12-07T03:52:26;38.28;;;15.10;;
21360;SDS011;10839;43.206;23.550;2022-12-07T03:55:27;34.15;;;13.02;;
21360;SDS011;10839;43.206;23.550;2022-12-07T03:58:06;36.03;;;14.23;;
21360;SDS011;10839;43.206;23.550;2022-12-07T04:00:36;31.05;;;13.23;;
21360;SDS011;10839;43.206;23.550;2022-12-07T04:03:03;34.80;;;13.65;;
21360;SDS011;10839;43.206;23.550;2022-12-07T04:05:29;30.17;;;12.93;;
21360;SDS011;10839;43.206;23.550;2022-12-07T04:07:55;33.50;;;12.57;;
21360;SDS011;10839;43.206;23.550;2022-12-07T04:10:21;30.33;;;11.95;;
21360;SDS011;10839;43.206;23.550;2022-12-07T04:12:48;32.70;;;12.85;;
21360;SDS011;10839;43.206;23.550;2022-12-07T04:15:13;32.53;;;13.70;;
21360;SDS011;10839;43.206;23.550;2022-12-07T04:17:39;33.42;;;12.68;;
21360;SDS011;10839;43.206;23.550;2022-12-07T04:20:05;31.10;;;13.25;;
21360;SDS011;10839;43.206;23.550;2022-12-07T04:22:33;32.58;;;13.23;;
21360;SDS011;10839;43.206;23.550;2022-12-07T04:25:00;30.05;;;13.23;;
21360;SDS011;10839;43.206;23.550;2022-12-07T04:27:26;37.13;;;14.15;;
21360;SDS011;10839;43.206;23.550;2022-12-07T04:29:52;44.95;;;14.07;;
21360;SDS011;10839;43.206;23.550;2022-12-07T04:32:18;40.13;;;13.35;;
21360;SDS011;10839;43.206;23.550;2022-12-07T04:34:44;43.42;;;14.57;;
21360;SDS011;10839;43.206;23.550;2022-12-07T04:37:10;42.65;;;13.52;;
21360;SDS011;10839;43.206;23.550;2022-12-07T04:39:36;33.40;;;13.63;;
21360;SDS011;10839;43.206;23.550;2022-12-07T04:42:02;49.30;;;15.07;;
21360;SDS011;10839;43.206;23.550;2022-12-07T04:44:29;55.35;;;14.82;;
21360;SDS011;10839;43.206;23.550;2022-12-07T04:46:56;42.63;;;12.50;;
21360;SDS011;10839;43.206;23.550;2022-12-07T04:49:22;55.22;;;14.63;;
21360;SDS011;10839;43.206;23.550;2022-12-07T04:51:49;37.28;;;14.68;;
21360;SDS011;10839;43.206;23.550;2022-12-07T04:54:15;35.92;;;13.48;;
21360;SDS011;10839;43.206;23.550;2022-12-07T04:56:42;48.85;;;13.05;;
21360;SDS011;10839;43.206;23.550;2022-12-07T05:01:44;40.63;;;14.85;;
21360;SDS011;10839;43.206;23.550;2022-12-07T05:04:10;55.03;;;14.60;;
21360;SDS011;10839;43.206;23.550;2022-12-07T05:06:55;54.80;;;14.65;;
21360;SDS011;10839;43.206;23.550;2022-12-07T05:09:21;45.30;;;14.00;;
21360;SDS011;10839;43.206;23.550;2022-12-07T05:11:47;49.08;;;13.88;;
21360;SDS011;10839;43.206;23.550;2022-12-07T05:14:16;51.50;;;14.07;;
21360;SDS011;10839;43.206;23.550;2022-12-07T05:16:45;90.30;;;13.38;;
21360;SDS011;10839;43.206;23.550;2022-12-07T05:19:15;77.22;;;13.80;;
21360;SDS011;10839;43.206;23.550;2022-12-07T05:21:42;99.72;;;14.10;;
21360;SDS011;10839;43.206;23.550;2022-12-07T05:24:10;87.65;;;13.45;;
21360;SDS011;10839;43.206;23.550;2022-12-07T05:26:37;58.40;;;13.85;;
21360;SDS011;10839;43.206;23.550;2022-12-07T05:29:03;55.08;;;15.20;;
21360;SDS011;10839;43.206;23.550;2022-12-07T05:31:55;105.10;;;15.05;;
21360;SDS011;10839;43.206;23.550;2022-12-07T05:34:21;86.88;;;13.82;;
21360;SDS011;10839;43.206;23.550;2022-12-07T05:36:47;49.42;;;13.45;;
21360;SDS011;10839;43.206;23.550;2022-12-07T05:39:12;74.40;;;13.55;;
21360;SDS011;10839;43.206;23.550;2022-12-07T05:41:38;55.47;;;15.70;;
21360;SDS011;10839;43.206;23.550;2022-12-07T05:44:25;55.42;;;13.68;;
21360;SDS011;10839;43.206;23.550;2022-12-07T05:46:51;71.75;;;13.98;;
21360;SDS011;10839;43.206;23.550;2022-12-07T05:49:17;64.43;;;15.05;;
21360;SDS011;10839;43.206;23.550;2022-12-07T05:54:23;46.95;;;16.02;;
21360;SDS011;10839;43.206;23.550;2022-12-07T05:56:49;52.42;;;13.82;;
21360;SDS011;10839;43.206;23.550;2022-12-07T05:59:15;50.15;;;14.23;;
21360;SDS011;10839;43.206;23.550;2022-12-07T06:01:54;77.78;;;15.18;;
21360;SDS011;10839;43.206;23.550;2022-12-07T06:04:23;55.83;;;13.93;;
21360;SDS011;10839;43.206;23.550;2022-12-07T06:06:51;44.28;;;13.32;;
21360;SDS011;10839;43.206;23.550;2022-12-07T06:09:17;63.13;;;13.68;;
21360;SDS011;10839;43.206;23.550;2022-12-07T06:11:44;53.00;;;14.55;;
21360;SDS011;10839;43.206;23.550;2022-12-07T06:14:28;62.13;;;14.48;;
21360;SDS011;10839;43.206;23.550;2022-12-07T06:16:54;81.65;;;13.55;;
21360;SDS011;10839;43.206;23.550;2022-12-07T06:19:20;88.05;;;13.60;;
21360;SDS011;10839;43.206;23.550;2022-12-07T06:21:46;85.13;;;14.50;;
21360;SDS011;10839;43.206;23.550;2022-12-07T06:24:13;68.25;;;14.68;;
21360;SDS011;10839;43.206;23.550;2022-12-07T06:26:40;74.82;;;13.77;;
21360;SDS011;10839;43.206;23.550;2022-12-07T06:29:08;41.47;;;15.10;;
21360;SDS011;10839;43.206;23.550;2022-12-07T06:31:35;66.80;;;16.55;;
21360;SDS011;10839;43.206;23.550;2022-12-07T06:36:38;70.93;;;17.60;;
21360;SDS011;10839;43.206;23.550;2022-12-07T06:39:04;54.28;;;16.98;;
21360;SDS011;10839;43.206;23.550;2022-12-07T06:41:35;46.38;;;15.68;;
21360;SDS011;10839;43.206;23.550;2022-12-07T06:44:04;86.10;;;16.50;;
21360;SDS011;10839;43.206;23.550;2022-12-07T06:46:31;63.42;;;16.55;;
21360;SDS011;10839;43.206;23.550;2022-12-07T06:48:57;76.53;;;21.13;;
21360;SDS011;10839;43.206;23.550;2022-12-07T06:51:23;111.85;;;46.10;;
21360;SDS011;10839;43.206;23.550;2022-12-07T06:53:49;66.25;;;25.77;;
21360;SDS011;10839;43.206;23.550;2022-12-07T06:56:15;95.65;;;31.75;;
21360;SDS011;10839;43.206;23.550;2022-12-07T06:58:41;105.38;;;32.92;;
21360;SDS011;10839;43.206;23.550;2022-12-07T07:01:13;91.55;;;20.40;;
21360;SDS011;10839;43.206;23.550;2022-12-07T07:03:41;61.45;;;18.33;;
21360;SDS011;10839;43.206;23.550;2022-12-07T07:06:09;70.13;;;26.10;;
21360;SDS011;10839;43.206;23.550;2022-12-07T07:08:35;80.78;;;25.83;;
21360;SDS011;10839;43.206;23.550;2022-12-07T07:11:02;59.47;;;20.33;;
21360;SDS011;10839;43.206;23.550;2022-12-07T07:13:29;55.00;;;19.38;;
21360;SDS011;10839;43.206;23.550;2022-12-07T07:15:55;55.65;;;21.90;;
21360;SDS011;10839;43.206;23.550;2022-12-07T07:18:21;55.40;;;19.92;;
21360;SDS011;10839;43.206;23.550;2022-12-07T07:20:48;56.15;;;20.40;;
21360;SDS011;10839;43.206;23.550;2022-12-07T07:23:15;65.43;;;22.17;;
21360;SDS011;10839;43.206;23.550;2022-12-07T07:25:42;66.57;;;23.33;;
21360;SDS011;10839;43.206;23.550;2022-12-07T07:28:08;62.40;;;23.45;;
21360;SDS011;10839;43.206;23.550;2022-12-07T07:30:34;60.47;;;19.27;;
21360;SDS011;10839;43.206;23.550;2022-12-07T07:33:00;69.07;;;27.10;;
21360;SDS011;10839;43.206;23.550;2022-12-07T07:35:28;64.88;;;20.40;;
21360;SDS011;10839;43.206;23.550;2022-12-07T07:37:55;64.47;;;21.10;;
21360;SDS011;10839;43.206;23.550;2022-12-07T07:40:22;86.88;;;34.92;;
21360;SDS011;10839;43.206;23.550;2022-12-07T07:42:49;103.25;;;39.45;;
21360;SDS011;10839;43.206;23.550;2022-12-07T07:45:18;76.35;;;26.15;;
21360;SDS011;10839;43.206;23.550;2022-12-07T07:47:46;69.63;;;19.65;;
21360;SDS011;10839;43.206;23.550;2022-12-07T07:50:12;73.88;;;24.40;;
21360;SDS011;10839;43.206;23.550;2022-12-07T07:52:39;64.63;;;26.75;;
21360;SDS011;10839;43.206;23.550;2022-12-07T07:55:06;58.67;;;21.90;;
21360;SDS011;10839;43.206;23.550;2022-12-07T07:57:37;73.80;;;23.05;;
21360;SDS011;10839;43.206;23.550;2022-12-07T08:00:05;56.10;;;21.73;;
21360;SDS011;10839;43.206;23.550;2022-12-07T08:02:37;66.88;;;22.42;;
21360;SDS011;10839;43.206;23.550;2022-12-07T08:05:04;70.97;;;30.73;;
21360;SDS011;10839;43.206;23.550;2022-12-07T08:07:30;55.45;;;25.30;;
21360;SDS011;10839;43.206;23.550;2022-12-07T08:09:56;42.50;;;17.98;;
21360;SDS011;10839;43.206;23.550;2022-12-07T08:12:22;38.45;;;16.58;;
21360;SDS011;10839;43.206;23.550;2022-12-07T08:14:48;42.13;;;16.40;;
21360;SDS011;10839;43.206;23.550;2022-12-07T08:17:14;44.40;;;19.00;;
21360;SDS011;10839;43.206;23.550;2022-12-07T08:19:40;55.80;;;25.73;;
21360;SDS011;10839;43.206;23.550;2022-12-07T08:22:06;49.95;;;20.90;;
21360;SDS011;10839;43.206;23.550;2022-12-07T08:24:33;59.50;;;23.95;;
21360;SDS011;10839;43.206;23.550;2022-12-07T08:26:59;50.17;;;21.67;;
21360;SDS011;10839;43.206;23.550;2022-12-07T08:29:26;51.72;;;23.58;;
21360;SDS011;10839;43.206;23.550;2022-12-07T08:31:52;53.70;;;22.15;;
21360;SDS011;10839;43.206;23.550;2022-12-07T08:34:18;51.45;;;21.60;;
21360;SDS011;10839;43.206;23.550;2022-12-07T08:36:44;48.17;;;21.77;;
21360;SDS011;10839;43.206;23.550;2022-12-07T08:39:10;53.65;;;23.67;;
21360;SDS011;10839;43.206;23.550;2022-12-07T08:41:36;47.80;;;21.98;;
21360;SDS011;10839;43.206;23.550;2022-12-07T08:44:02;49.58;;;20.88;;
21360;SDS011;10839;43.206;23.550;2022-12-07T08:46:31;41.25;;;19.33;;
21360;SDS011;10839;43.206;23.550;2022-12-07T08:51:37;55.30;;;23.02;;
21360;SDS011;10839;43.206;23.550;2022-12-07T08:54:06;45.58;;;20.95;;
21360;SDS011;10839;43.206;23.550;2022-12-07T08:56:36;50.00;;;19.45;;
21360;SDS011;10839;43.206;23.550;2022-12-07T08:59:03;44.67;;;19.23;;
21360;SDS011;10839;43.206;23.550;2022-12-07T09:01:31;38.10;;;16.98;;
21360;SDS011;10839;43.206;23.550;2022-12-07T09:03:58;33.67;;;15.75;;
21360;SDS011;10839;43.206;23.550;2022-12-07T09:06:24;35.58;;;15.88;;
21360;SDS011;10839;43.206;23.550;2022-12-07T09:08:51;39.08;;;17.10;;
21360;SDS011;10839;43.206;23.550;2022-12-07T09:11:23;36.80;;;15.85;;
21360;SDS011;10839;43.206;23.550;2022-12-07T09:13:49;47.65;;;19.77;;
21360;SDS011;10839;43.206;23.550;2022-12-07T09:16:15;44.88;;;18.05;;
21360;SDS011;10839;43.206;23.550;2022-12-07T09:18:41;42.22;;;18.38;;
21360;SDS011;10839;43.206;23.550;2022-12-07T09:21:07;45.13;;;18.05;;
21360;SDS011;10839;43.206;23.550;2022-12-07T09:23:33;54.45;;;20.50;;
21360;SDS011;10839;43.206;23.550;2022-12-07T09:26:03;49.08;;;20.05;;
21360;SDS011;10839;43.206;23.550;2022-12-07T09:28:30;43.70;;;18.50;;
21360;SDS011;10839;43.206;23.550;2022-12-07T09:30:57;44.38;;;18.55;;
21360;SDS011;10839;43.206;23.550;2022-12-07T09:33:23;46.97;;;19.05;;
21360;SDS011;10839;43.206;23.550;2022-12-07T09:35:50;47.20;;;21.05;;
21360;SDS011;10839;43.206;23.550;2022-12-07T09:38:21;47.03;;;19.50;;
21360;SDS011;10839;43.206;23.550;2022-12-07T09:40:47;46.10;;;19.73;;
21360;SDS011;10839;43.206;23.550;2022-12-07T09:43:15;43.53;;;18.35;;
21360;SDS011;10839;43.206;23.550;2022-12-07T09:45:43;44.25;;;18.08;;
21360;SDS011;10839;43.206;23.550;2022-12-07T09:50:53;52.75;;;21.58;;
21360;SDS011;10839;43.206;23.550;2022-12-07T09:53:24;46.78;;;21.65;;
21360;SDS011;10839;43.206;23.550;2022-12-07T09:55:53;47.35;;;20.13;;
21360;SDS011;10839;43.206;23.550;2022-12-07T09:58:24;55.50;;;22.55;;
21360;SDS011;10839;43.206;23.550;2022-12-07T10:00:57;57.85;;;24.35;;
21360;SDS011;10839;43.206;23.550;2022-12-07T10:03:26;48.03;;;21.58;;
21360;SDS011;10839;43.206;23.550;2022-12-07T10:05:53;46.97;;;21.45;;
21360;SDS011;10839;43.206;23.550;2022-12-07T10:08:20;44.55;;;18.58;;
21360;SDS011;10839;43.206;23.550;2022-12-07T10:10:52;44.88;;;19.05;;
21360;SDS011;10839;43.206;23.550;2022-12-07T10:13:43;49.35;;;19.20;;
21360;SDS011;10839;43.206;23.550;2022-12-07T10:18:50;53.22;;;21.40;;
21360;SDS011;10839;43.206;23.550;2022-12-07T10:21:18;58.15;;;21.02;;
21360;SDS011;10839;43.206;23.550;2022-12-07T10:24:03;51.72;;;21.73;;
21360;SDS011;10839;43.206;23.550;2022-12-07T10:26:46;46.00;;;21.20;;
21360;SDS011;10839;43.206;23.550;2022-12-07T10:32:02;55.80;;;25.83;;
21360;SDS011;10839;43.206;23.550;2022-12-07T10:34:33;55.92;;;25.17;;
21360;SDS011;10839;43.206;23.550;2022-12-07T10:37:13;43.55;;;20.75;;
21360;SDS011;10839;43.206;23.550;2022-12-07T10:39:42;43.78;;;21.15;;
21360;SDS011;10839;43.206;23.550;2022-12-07T10:44:44;49.75;;;24.17;;
21360;SDS011;10839;43.206;23.550;2022-12-07T10:53:08;42.70;;;20.83;;
21360;SDS011;10839;43.206;23.550;2022-12-07T11:01:13;55.03;;;24.60;;
21360;SDS011;10839;43.206;23.550;2022-12-07T11:20:21;94.82;;;44.67;;
21360;SDS011;10839;43.206;23.550;2022-12-07T11:26:04;73.18;;;36.03;;
21360;SDS011;10839;43.206;23.550;2022-12-07T11:36:48;81.55;;;37.03;;
21360;SDS011;10839;43.206;23.550;2022-12-07T11:42:04;89.95;;;39.50;;
21360;SDS011;10839;43.206;23.550;2022-12-07T11:47:39;85.55;;;37.80;;
21360;SDS011;10839;43.206;23.550;2022-12-07T12:09:14;93.32;;;38.78;;
21360;SDS011;10839;43.206;23.550;2022-12-07T12:25:27;90.72;;;37.17;;
21360;SDS011;10839;43.206;23.550;2022-12-07T12:27:57;97.32;;;42.25;;
21360;SDS011;10839;43.206;23.550;2022-12-07T12:36:17;103.03;;;44.37;;
21360;SDS011;10839;43.206;23.550;2022-12-07T12:54:35;108.70;;;47.75;;
21360;SDS011;10839;43.206;23.550;2022-12-07T12:59:35;125.18;;;54.15;;
21360;SDS011;10839;43.206;23.550;2022-12-07T13:05:14;144.10;;;62.90;;
21360;SDS011;10839;43.206;23.550;2022-12-07T13:13:39;89.38;;;41.55;;
21360;SDS011;10839;43.206;23.550;2022-12-07T13:15:41;96.57;;;42.90;;
21360;SDS011;10839;43.206;23.550;2022-12-07T13:18:34;79.90;;;36.65;;
21360;SDS011;10839;43.206;23.550;2022-12-07T13:21:02;76.78;;;35.55;;
21360;SDS011;10839;43.206;23.550;2022-12-07T13:23:58;75.57;;;32.67;;
21360;SDS011;10839;43.206;23.550;2022-12-07T13:26:39;72.32;;;30.52;;
21360;SDS011;10839;43.206;23.550;2022-12-07T13:31:36;76.00;;;33.03;;
21360;SDS011;10839;43.206;23.550;2022-12-07T13:37:25;79.22;;;33.45;;
21360;SDS011;10839;43.206;23.550;2022-12-07T13:40:01;92.38;;;40.83;;
21360;SDS011;10839;43.206;23.550;2022-12-07T13:42:44;65.82;;;29.27;;
21360;SDS011;10839;43.206;23.550;2022-12-07T13:45:21;60.33;;;27.92;;
21360;SDS011;10839;43.206;23.550;2022-12-07T13:48:21;62.28;;;27.60;;
21360;SDS011;10839;43.206;23.550;2022-12-07T13:50:54;62.38;;;28.88;;
21360;SDS011;10839;43.206;23.550;2022-12-07T13:53:21;61.25;;;28.88;;
21360;SDS011;10839;43.206;23.550;2022-12-07T13:55:47;60.10;;;29.35;;
21360;SDS011;10839;43.206;23.550;2022-12-07T13:58:13;71.65;;;31.35;;
21360;SDS011;10839;43.206;23.550;2022-12-07T14:00:40;72.65;;;32.83;;
21360;SDS011;10839;43.206;23.550;2022-12-07T14:05:40;57.20;;;27.15;;
21360;SDS011;10839;43.206;23.550;2022-12-07T14:10:40;52.00;;;25.40;;
21360;SDS011;10839;43.206;23.550;2022-12-07T14:15:54;52.30;;;26.15;;
21360;SDS011;10839;43.206;23.550;2022-12-07T14:18:30;54.83;;;24.13;;
21360;SDS011;10839;43.206;23.550;2022-12-07T14:21:24;36.65;;;18.00;;
21360;SDS011;10839;43.206;23.550;2022-12-07T14:24:10;63.90;;;29.33;;
21360;SDS011;10839;43.206;23.550;2022-12-07T14:26:45;53.15;;;24.73;;
21360;SDS011;10839;43.206;23.550;2022-12-07T14:31:51;52.65;;;26.50;;
21360;SDS011;10839;43.206;23.550;2022-12-07T14:34:21;67.35;;;28.88;;
21360;SDS011;10839;43.206;23.550;2022-12-07T14:36:49;64.68;;;28.52;;
21360;SDS011;10839;43.206;23.550;2022-12-07T14:39:15;70.03;;;29.85;;
21360;SDS011;10839;43.206;23.550;2022-12-07T14:45:29;92.35;;;34.83;;
21360;SDS011;10839;43.206;23.550;2022-12-07T14:47:55;88.15;;;35.10;;
21360;SDS011;10839;43.206;23.550;2022-12-07T14:50:22;77.25;;;33.03;;
21360;SDS011;10839;43.206;23.550;2022-12-07T14:52:49;69.18;;;32.22;;
21360;SDS011;10839;43.206;23.550;2022-12-07T14:55:25;70.78;;;33.03;;
21360;SDS011;10839;43.206;23.550;2022-12-07T14:57:53;77.90;;;35.05;;
21360;SDS011;10839;43.206;23.550;2022-12-07T15:03:18;64.60;;;28.70;;
21360;SDS011;10839;43.206;23.550;2022-12-07T15:05:44;70.55;;;30.20;;
21360;SDS011;10839;43.206;23.550;2022-12-07T15:08:14;64.75;;;27.58;;
21360;SDS011;10839;43.206;23.550;2022-12-07T15:10:40;67.32;;;25.83;;
21360;SDS011;10839;43.206;23.550;2022-12-07T15:13:06;57.28;;;25.42;;
21360;SDS011;10839;43.206;23.550;2022-12-07T15:15:51;55.67;;;24.48;;
21360;SDS011;10839;43.206;23.550;2022-12-07T15:18:18;56.60;;;23.70;;
21360;SDS011;10839;43.206;23.550;2022-12-07T15:20:45;55.50;;;23.40;;
21360;SDS011;10839;43.206;23.550;2022-12-07T15:23:11;160.02;;;70.72;;
21360;SDS011;10839;43.206;23.550;2022-12-07T15:25:41;80.45;;;36.38;;
21360;SDS011;10839;43.206;23.550;2022-12-07T15:28:08;63.63;;;27.67;;
21360;SDS011;10839;43.206;23.550;2022-12-07T15:30:36;57.72;;;25.20;;
21360;SDS011;10839;43.206;23.550;2022-12-07T15:33:03;67.47;;;25.83;;
21360;SDS011;10839;43.206;23.550;2022-12-07T15:35:29;63.05;;;27.27;;
21360;SDS011;10839;43.206;23.550;2022-12-07T15:37:54;61.75;;;25.23;;
21360;SDS011;10839;43.206;23.550;2022-12-07T15:40:20;62.00;;;26.15;;
21360;SDS011;10839;43.206;23.550;2022-12-07T15:42:48;72.65;;;28.13;;
21360;SDS011;10839;43.206;23.550;2022-12-07T15:45:14;64.43;;;26.40;;
21360;SDS011;10839;43.206;23.550;2022-12-07T15:47:41;69.82;;;27.25;;
21360;SDS011;10839;43.206;23.550;2022-12-07T15:50:11;58.90;;;25.55;;
21360;SDS011;10839;43.206;23.550;2022-12-07T15:52:38;66.05;;;26.67;;
21360;SDS011;10839;43.206;23.550;2022-12-07T15:55:05;69.18;;;25.67;;
21360;SDS011;10839;43.206;23.550;2022-12-07T15:57:32;58.00;;;25.75;;
21360;SDS011;10839;43.206;23.550;2022-12-07T16:00:00;57.33;;;22.98;;
21360;SDS011;10839;43.206;23.550;2022-12-07T16:02:29;56.60;;;23.52;;
21360;SDS011;10839;43.206;23.550;2022-12-07T16:04:55;81.65;;;31.10;;
21360;SDS011;10839;43.206;23.550;2022-12-07T16:07:21;91.78;;;33.35;;
21360;SDS011;10839;43.206;23.550;2022-12-07T16:09:46;57.60;;;25.85;;
21360;SDS011;10839;43.206;23.550;2022-12-07T16:12:13;63.17;;;25.90;;
21360;SDS011;10839;43.206;23.550;2022-12-07T16:14:40;64.68;;;26.23;;
21360;SDS011;10839;43.206;23.550;2022-12-07T16:17:07;57.53;;;25.13;;
21360;SDS011;10839;43.206;23.550;2022-12-07T16:19:35;70.50;;;28.55;;
21360;SDS011;10839;43.206;23.550;2022-12-07T16:22:02;85.75;;;26.02;;
21360;SDS011;10839;43.206;23.550;2022-12-07T16:24:30;97.53;;;35.03;;
21360;SDS011;10839;43.206;23.550;2022-12-07T16:26:56;100.03;;;38.72;;
21360;SDS011;10839;43.206;23.550;2022-12-07T16:29:22;95.90;;;39.13;;
21360;SDS011;10839;43.206;23.550;2022-12-07T16:31:55;71.97;;;27.08;;
21360;SDS011;10839;43.206;23.550;2022-12-07T16:34:25;87.20;;;28.75;;
21360;SDS011;10839;43.206;23.550;2022-12-07T16:36:52;72.50;;;27.90;;
21360;SDS011;10839;43.206;23.550;2022-12-07T16:39:19;86.32;;;31.85;;
21360;SDS011;10839;43.206;23.550;2022-12-07T16:41:45;119.80;;;41.20;;
21360;SDS011;10839;43.206;23.550;2022-12-07T16:44:11;105.90;;;41.25;;
21360;SDS011;10839;43.206;23.550;2022-12-07T16:46:39;116.53;;;41.85;;
21360;SDS011;10839;43.206;23.550;2022-12-07T16:49:06;86.80;;;31.33;;
21360;SDS011;10839;43.206;23.550;2022-12-07T16:51:32;78.78;;;30.00;;
21360;SDS011;10839;43.206;23.550;2022-12-07T16:54:01;70.97;;;26.33;;
21360;SDS011;10839;43.206;23.550;2022-12-07T16:56:26;79.38;;;31.55;;
21360;SDS011;10839;43.206;23.550;2022-12-07T16:58:54;184.50;;;76.78;;
21360;SDS011;10839;43.206;23.550;2022-12-07T17:01:20;103.10;;;38.00;;
21360;SDS011;10839;43.206;23.550;2022-12-07T17:03:47;116.97;;;39.22;;
21360;SDS011;10839;43.206;23.550;2022-12-07T17:08:46;88.00;;;35.03;;
21360;SDS011;10839;43.206;23.550;2022-12-07T17:11:14;87.30;;;35.13;;
21360;SDS011;10839;43.206;23.550;2022-12-07T17:13:42;84.88;;;32.45;;
21360;SDS011;10839;43.206;23.550;2022-12-07T17:16:27;90.35;;;32.80;;
21360;SDS011;10839;43.206;23.550;2022-12-07T17:18:54;115.68;;;30.63;;
21360;SDS011;10839;43.206;23.550;2022-12-07T17:21:20;76.43;;;28.75;;
21360;SDS011;10839;43.206;23.550;2022-12-07T17:23:48;72.60;;;28.13;;
21360;SDS011;10839;43.206;23.550;2022-12-07T17:26:21;93.65;;;32.72;;
21360;SDS011;10839;43.206;23.550;2022-12-07T17:28:48;112.07;;;35.03;;
21360;SDS011;10839;43.206;23.550;2022-12-07T17:31:15;78.35;;;28.60;;
21360;SDS011;10839;43.206;23.550;2022-12-07T17:33:43;69.28;;;25.67;;
21360;SDS011;10839;43.206;23.550;2022-12-07T17:36:13;69.28;;;26.95;;
21360;SDS011;10839;43.206;23.550;2022-12-07T17:38:41;73.18;;;26.60;;
21360;SDS011;10839;43.206;23.550;2022-12-07T17:41:11;87.20;;;27.30;;
21360;SDS011;10839;43.206;23.550;2022-12-07T17:43:58;66.95;;;24.33;;
21360;SDS011;10839;43.206;23.550;2022-12-07T17:46:24;79.85;;;28.85;;